createdAt,value
2017-07-21T00:00:52.276Z,19.10
2017-07-21T00:03:19.825Z,19.10
2017-07-21T00:05:47.265Z,19.00
2017-07-21T00:08:14.788Z,18.90
2017-07-21T00:10:42.432Z,18.70
2017-07-21T00:13:09.892Z,18.50
2017-07-21T00:15:37.341Z,18.40
2017-07-21T00:18:05.804Z,18.30
2017-07-21T00:20:33.254Z,18.20
2017-07-21T00:23:01.469Z,18.10
2017-07-21T00:25:28.946Z,18.10
2017-07-21T00:27:56.490Z,18.20
2017-07-21T00:30:24.024Z,18.10
2017-07-21T00:32:51.572Z,18.20
2017-07-21T00:35:19.064Z,18.10
2017-07-21T00:37:47.265Z,18.10
2017-07-21T00:40:15.504Z,18.10
2017-07-21T00:42:43.052Z,18.10
2017-07-21T00:45:10.597Z,18.00
2017-07-21T00:47:38.041Z,18.10
2017-07-21T00:50:05.614Z,18.00
2017-07-21T00:52:33.975Z,17.90
2017-07-21T00:55:02.255Z,17.90
2017-07-21T00:57:29.804Z,17.80
2017-07-21T00:59:57.322Z,17.90
2017-07-21T01:02:25.588Z,17.80
2017-07-21T01:04:53.850Z,17.80
2017-07-21T01:07:21.317Z,17.80
2017-07-21T01:09:48.934Z,17.80
2017-07-21T01:12:16.476Z,17.70
2017-07-21T01:14:44.706Z,17.70
2017-07-21T01:17:12.277Z,17.60
2017-07-21T01:19:40.538Z,17.60
2017-07-21T01:22:08.793Z,17.60
2017-07-21T01:24:37.057Z,17.60
2017-07-21T01:27:04.539Z,17.60
2017-07-21T01:29:32.039Z,17.60
2017-07-21T01:32:00.303Z,17.50
2017-07-21T01:34:28.566Z,17.50
2017-07-21T01:36:56.927Z,17.50
2017-07-21T01:39:24.494Z,17.50
2017-07-21T01:41:52.034Z,17.50
2017-07-21T01:44:20.307Z,17.40
2017-07-21T01:46:47.834Z,17.40
2017-07-21T01:49:16.197Z,17.30
2017-07-21T01:51:44.459Z,17.30
2017-07-21T01:54:12.702Z,17.30
2017-07-21T01:56:41.082Z,17.30
2017-07-21T01:59:09.344Z,17.20
2017-07-21T02:01:37.577Z,17.20
2017-07-21T02:04:05.145Z,17.10
2017-07-21T02:06:33.421Z,17.10
2017-07-21T02:09:00.953Z,17.10
2017-07-21T02:11:29.206Z,17.00
2017-07-21T02:13:57.466Z,17.00
2017-07-21T02:16:25.735Z,17.00
2017-07-21T02:18:53.246Z,17.00
2017-07-21T02:21:20.718Z,16.90
2017-07-21T02:23:48.257Z,16.90
2017-07-21T02:26:16.626Z,16.90
2017-07-21T02:28:44.167Z,16.80
2017-07-21T02:31:11.634Z,16.80
2017-07-21T02:33:39.139Z,16.80
2017-07-21T02:36:07.410Z,16.70
2017-07-21T02:38:34.986Z,16.70
2017-07-21T02:41:02.531Z,16.70
2017-07-21T02:43:30.779Z,16.60
2017-07-21T02:45:59.018Z,16.50
2017-07-21T02:48:26.586Z,16.50
2017-07-21T02:50:54.864Z,16.50
2017-07-21T02:53:22.393Z,16.50
2017-07-21T02:55:50.798Z,16.50
2017-07-21T02:58:18.270Z,16.40
2017-07-21T03:00:45.742Z,16.40
2017-07-21T03:03:14.101Z,16.40
2017-07-21T03:05:42.370Z,16.40
2017-07-21T03:08:09.911Z,16.40
2017-07-21T03:10:38.355Z,16.30
2017-07-21T03:13:05.829Z,16.30
2017-07-21T03:15:33.362Z,16.30
2017-07-21T03:18:00.898Z,16.20
2017-07-21T03:20:29.143Z,16.20
2017-07-21T03:23:08.527Z,16.20
2017-07-21T03:25:36.030Z,16.20
2017-07-21T03:28:03.566Z,16.10
2017-07-21T03:30:32.026Z,16.00
2017-07-21T03:33:00.274Z,16.00
2017-07-21T03:35:27.839Z,16.00
2017-07-21T03:37:56.110Z,16.00
2017-07-21T03:40:24.370Z,16.00
2017-07-21T03:42:52.626Z,16.00
2017-07-21T03:45:20.990Z,16.00
2017-07-21T03:47:49.226Z,16.00
2017-07-21T03:50:16.701Z,16.00
2017-07-21T03:52:44.237Z,16.00
2017-07-21T03:55:12.497Z,16.00
2017-07-21T03:57:40.758Z,16.00
2017-07-21T04:00:08.994Z,16.00
2017-07-21T04:02:36.466Z,16.00
2017-07-21T04:05:03.946Z,16.00
2017-07-21T04:07:31.445Z,15.90
2017-07-21T04:09:59.727Z,16.00
2017-07-21T04:12:27.255Z,15.90
2017-07-21T04:14:54.730Z,16.00
2017-07-21T04:17:22.201Z,15.90
2017-07-21T04:19:49.718Z,15.90
2017-07-21T04:22:17.218Z,15.90
2017-07-21T04:24:45.477Z,15.90
2017-07-21T04:27:13.126Z,15.80
2017-07-21T04:29:40.607Z,15.90
2017-07-21T04:32:08.111Z,15.90
2017-07-21T04:34:35.849Z,15.90
2017-07-21T04:37:03.323Z,15.80
2017-07-21T04:39:30.846Z,15.70
2017-07-21T04:41:58.335Z,15.80
2017-07-21T04:44:25.830Z,15.70
2017-07-21T04:46:53.307Z,15.70
2017-07-21T04:49:20.809Z,15.70
2017-07-21T04:51:48.554Z,15.80
2017-07-21T04:54:16.823Z,15.70
2017-07-21T04:56:44.302Z,15.70
2017-07-21T04:59:11.905Z,15.80
2017-07-21T05:01:40.138Z,15.80
2017-07-21T05:04:07.606Z,15.80
2017-07-21T05:06:36.070Z,16.00
2017-07-21T05:09:04.336Z,16.00
2017-07-21T05:11:32.693Z,16.00
2017-07-21T05:14:00.958Z,15.90
2017-07-21T05:16:29.196Z,16.00
2017-07-21T05:18:56.762Z,15.90
2017-07-21T05:21:25.022Z,16.10
2017-07-21T05:23:53.277Z,16.10
2017-07-21T05:26:21.738Z,16.10
2017-07-21T05:28:49.986Z,16.20
2017-07-21T05:31:18.266Z,16.30
2017-07-21T05:33:46.725Z,16.20
2017-07-21T05:36:14.998Z,16.20
2017-07-21T05:38:42.487Z,16.10
2017-07-21T05:41:10.026Z,16.20
2017-07-21T05:43:38.267Z,16.30
2017-07-21T05:46:05.733Z,16.30
2017-07-21T05:48:33.284Z,16.30
2017-07-21T05:51:00.763Z,16.30
2017-07-21T05:53:28.260Z,16.30
2017-07-21T05:55:56.613Z,16.30
2017-07-21T05:58:24.878Z,16.30
2017-07-21T06:00:53.120Z,16.20
2017-07-21T06:03:20.785Z,16.20
2017-07-21T06:05:49.046Z,16.30
2017-07-21T06:08:17.306Z,16.50
2017-07-21T06:10:45.765Z,16.50
2017-07-21T06:13:14.034Z,16.50
2017-07-21T06:15:41.575Z,16.50
2017-07-21T06:18:10.038Z,16.60
2017-07-21T06:20:38.302Z,16.60
2017-07-21T06:23:05.848Z,16.60
2017-07-21T06:25:33.353Z,16.70
2017-07-21T06:28:00.933Z,16.80
2017-07-21T06:30:29.281Z,17.00
2017-07-21T06:32:57.554Z,17.10
2017-07-21T06:35:25.102Z,17.10
2017-07-21T06:37:52.738Z,17.10
2017-07-21T06:40:20.201Z,17.10
2017-07-21T06:42:47.681Z,17.00
2017-07-21T06:45:15.213Z,17.00
2017-07-21T06:47:43.478Z,17.00
2017-07-21T06:50:11.739Z,17.10
2017-07-21T06:52:40.203Z,17.10
2017-07-21T06:55:08.437Z,17.10
2017-07-21T06:57:35.910Z,17.00
2017-07-21T07:00:03.450Z,17.00
2017-07-21T07:02:30.993Z,17.00
2017-07-21T07:04:59.250Z,17.00
2017-07-21T07:07:27.718Z,17.10
2017-07-21T07:09:55.958Z,17.20
2017-07-21T07:12:23.518Z,17.20
2017-07-21T07:14:51.874Z,17.40
2017-07-21T07:17:20.146Z,17.40
2017-07-21T07:19:48.402Z,17.50
2017-07-21T07:22:16.658Z,17.60
2017-07-21T07:24:44.926Z,17.70
2017-07-21T07:27:12.469Z,17.60
2017-07-21T07:29:40.821Z,17.80
2017-07-21T07:32:09.058Z,17.90
2017-07-21T07:34:36.526Z,17.90
2017-07-21T07:37:04.998Z,18.00
2017-07-21T07:39:32.497Z,17.90
2017-07-21T07:42:00.030Z,18.00
2017-07-21T07:44:28.398Z,18.10
2017-07-21T07:46:56.630Z,18.10
2017-07-21T07:49:24.197Z,18.10
2017-07-21T07:51:52.444Z,18.20
2017-07-21T07:54:20.009Z,18.20
2017-07-21T07:56:48.261Z,18.50
2017-07-21T07:59:16.497Z,18.40
2017-07-21T08:01:44.070Z,18.40
2017-07-21T08:04:12.334Z,18.50
2017-07-21T08:06:40.632Z,18.50
2017-07-21T08:09:08.094Z,18.50
2017-07-21T08:11:35.673Z,18.60
2017-07-21T08:14:03.914Z,18.70
2017-07-21T08:16:31.382Z,18.70
2017-07-21T08:18:59.646Z,18.80
2017-07-21T08:21:27.178Z,18.70
2017-07-21T08:23:55.412Z,18.80
2017-07-21T08:26:23.087Z,18.80
2017-07-21T08:28:51.350Z,19.00
2017-07-21T08:31:19.608Z,18.90
2017-07-21T08:33:47.862Z,19.00
2017-07-21T08:36:16.089Z,19.00
2017-07-21T08:38:43.802Z,19.00
2017-07-21T08:41:12.071Z,19.20
2017-07-21T08:43:40.322Z,19.30
2017-07-21T08:46:08.569Z,19.40
2017-07-21T08:48:36.797Z,19.50
2017-07-21T08:51:04.286Z,19.40
2017-07-21T08:53:32.530Z,19.60
2017-07-21T08:55:59.997Z,19.60
2017-07-21T08:58:27.534Z,19.60
2017-07-21T09:00:55.766Z,19.70
2017-07-21T09:03:23.226Z,19.70
2017-07-21T09:05:51.495Z,19.80
2017-07-21T09:08:19.753Z,19.80
2017-07-21T09:10:48.017Z,19.90
2017-07-21T09:13:16.374Z,19.90
2017-07-21T09:15:44.633Z,20.00
2017-07-21T09:18:12.904Z,20.10
2017-07-21T09:20:41.358Z,20.20
2017-07-21T09:23:09.621Z,20.20
2017-07-21T09:25:37.879Z,20.30
2017-07-21T09:28:06.122Z,20.40
2017-07-21T09:30:34.606Z,20.40
2017-07-21T09:33:02.861Z,20.50
2017-07-21T09:35:31.093Z,20.50
2017-07-21T09:37:58.974Z,20.50
2017-07-21T09:40:27.238Z,20.60
2017-07-21T09:42:55.471Z,20.70
2017-07-21T09:45:22.606Z,20.70
2017-07-21T09:47:50.194Z,20.70
2017-07-21T09:50:17.657Z,20.80
2017-07-21T09:52:45.138Z,20.90
2017-07-21T09:55:12.700Z,21.00
2017-07-21T09:57:40.957Z,21.10
2017-07-21T10:00:09.218Z,21.20
2017-07-21T10:02:37.485Z,21.20
2017-07-21T10:05:05.750Z,21.30
2017-07-21T10:07:34.106Z,21.50
2017-07-21T10:10:01.599Z,21.40
2017-07-21T10:12:29.062Z,21.60
2017-07-21T10:14:56.738Z,21.60
2017-07-21T10:17:24.970Z,21.60
2017-07-21T10:19:52.430Z,21.60
2017-07-21T10:22:20.697Z,21.60
2017-07-21T10:24:48.921Z,21.60
2017-07-21T10:27:16.494Z,21.60
2017-07-21T10:29:44.722Z,21.80
2017-07-21T10:32:12.198Z,21.80
2017-07-21T10:34:40.461Z,21.90
2017-07-21T10:37:08.721Z,22.20
2017-07-21T10:39:36.243Z,22.10
2017-07-21T10:42:04.502Z,22.40
2017-07-21T10:44:32.734Z,22.40
2017-07-21T10:47:00.301Z,22.30
2017-07-21T10:49:28.566Z,22.30
2017-07-21T10:51:56.834Z,22.30
2017-07-21T10:54:25.098Z,22.30
2017-07-21T10:56:52.636Z,22.30
2017-07-21T10:59:20.889Z,22.60
2017-07-21T11:01:49.155Z,22.60
2017-07-21T11:04:17.390Z,22.70
2017-07-21T11:06:44.870Z,22.70
2017-07-21T11:09:12.402Z,22.80
2017-07-21T11:11:40.657Z,22.90
2017-07-21T11:14:08.933Z,22.80
2017-07-21T11:16:36.662Z,22.80
2017-07-21T11:19:05.026Z,22.60
2017-07-21T11:21:33.281Z,22.70
2017-07-21T11:24:01.560Z,22.90
2017-07-21T11:26:29.102Z,22.90
2017-07-21T11:28:56.569Z,22.90
2017-07-21T11:31:24.074Z,23.10
2017-07-21T11:33:51.622Z,23.70
2017-07-21T11:36:19.882Z,25.40
2017-07-21T11:38:48.141Z,25.90
2017-07-21T11:41:16.601Z,26.40
2017-07-21T11:43:44.839Z,26.90
2017-07-21T11:46:12.298Z,26.90
2017-07-21T11:48:40.745Z,29.30
2017-07-21T11:51:08.210Z,29.20
2017-07-21T11:53:36.444Z,31.00
2017-07-21T11:56:04.019Z,31.00
2017-07-21T11:58:31.554Z,31.90
2017-07-21T12:01:00.026Z,33.30
2017-07-21T12:03:28.286Z,33.10
2017-07-21T12:05:56.550Z,33.80
2017-07-21T12:08:24.186Z,33.70
2017-07-21T12:10:52.455Z,34.20
2017-07-21T12:13:19.978Z,34.20
2017-07-21T12:15:47.542Z,33.50
2017-07-21T12:18:15.796Z,33.50
2017-07-21T12:20:44.059Z,33.90
2017-07-21T12:23:12.318Z,34.70
2017-07-21T12:25:40.559Z,35.70
2017-07-21T12:28:08.122Z,35.70
2017-07-21T12:30:36.369Z,36.80
2017-07-21T12:33:04.614Z,37.10
2017-07-21T12:35:32.078Z,37.00
2017-07-21T12:38:00.314Z,37.40
2017-07-21T12:40:27.777Z,37.40
2017-07-21T12:42:55.278Z,36.00
2017-07-21T12:45:22.741Z,35.30
2017-07-21T12:47:50.281Z,35.20
2017-07-21T12:50:17.882Z,35.40
2017-07-21T12:52:46.117Z,37.20
2017-07-21T12:55:14.398Z,37.40
2017-07-21T12:57:42.642Z,38.20
2017-07-21T13:00:10.213Z,38.20
2017-07-21T13:02:37.706Z,38.60
2017-07-21T13:05:05.178Z,39.20
2017-07-21T13:07:33.423Z,39.10
2017-07-21T13:10:00.898Z,39.10
2017-07-21T13:12:28.434Z,39.90
2017-07-21T13:14:55.934Z,40.60
2017-07-21T13:17:23.406Z,40.10
2017-07-21T13:19:51.641Z,37.40
2017-07-21T13:22:19.218Z,37.30
2017-07-21T13:24:47.445Z,39.10
2017-07-21T13:27:14.921Z,39.10
2017-07-21T13:29:42.466Z,40.10
2017-07-21T13:32:10.017Z,40.90
2017-07-21T13:34:37.495Z,42.10
2017-07-21T13:37:04.994Z,40.40
2017-07-21T13:39:32.460Z,39.30
2017-07-21T13:41:59.929Z,39.60
2017-07-21T13:44:27.498Z,40.10
2017-07-21T13:46:55.865Z,40.10
2017-07-21T13:49:23.405Z,40.10
2017-07-21T13:51:51.666Z,37.80
2017-07-21T13:54:19.937Z,37.30
2017-07-21T13:56:47.479Z,37.30
2017-07-21T13:59:15.738Z,37.80
2017-07-21T14:01:44.198Z,37.80
2017-07-21T14:04:12.459Z,38.60
2017-07-21T14:06:40.700Z,38.90
2017-07-21T14:09:08.258Z,38.80
2017-07-21T14:11:36.529Z,41.50
2017-07-21T14:14:04.073Z,41.40
2017-07-21T14:16:32.326Z,41.50
2017-07-21T14:18:59.865Z,41.40
2017-07-21T14:21:27.334Z,40.60
2017-07-21T14:23:54.858Z,40.30
2017-07-21T14:26:22.323Z,39.80
2017-07-21T14:28:49.833Z,40.70
2017-07-21T14:31:17.377Z,42.00
2017-07-21T14:33:45.641Z,44.00
2017-07-21T14:36:14.003Z,44.20
2017-07-21T14:38:41.553Z,44.10
2017-07-21T14:41:09.786Z,44.60
2017-07-21T14:43:37.462Z,44.50
2017-07-21T14:46:05.730Z,45.10
2017-07-21T14:48:33.194Z,45.10
2017-07-21T14:51:00.670Z,45.20
2017-07-21T14:53:28.349Z,45.90
2017-07-21T14:55:56.583Z,46.10
2017-07-21T14:58:24.051Z,46.10
2017-07-21T15:00:52.514Z,45.80
2017-07-21T15:03:20.755Z,46.40
2017-07-21T15:05:48.329Z,46.40
2017-07-21T15:08:16.590Z,45.50
2017-07-21T15:10:44.847Z,45.90
2017-07-21T15:13:13.109Z,45.90
2017-07-21T15:15:41.461Z,45.00
2017-07-21T15:18:09.733Z,44.00
2017-07-21T15:20:37.993Z,43.60
2017-07-21T15:23:05.530Z,43.60
2017-07-21T15:25:33.770Z,43.00
2017-07-21T15:28:01.236Z,43.00
2017-07-21T15:30:29.489Z,42.50
2017-07-21T15:32:57.754Z,42.10
2017-07-21T15:35:26.010Z,42.30
2017-07-21T15:37:54.269Z,42.80
2017-07-21T15:40:21.785Z,42.80
2017-07-21T15:42:50.242Z,44.00
2017-07-21T15:45:18.510Z,44.10
2017-07-21T15:47:46.734Z,44.70
2017-07-21T15:50:14.414Z,44.70
2017-07-21T15:52:42.642Z,45.30
2017-07-21T15:55:10.112Z,45.30
2017-07-21T15:57:38.582Z,46.20
2017-07-21T16:00:06.937Z,46.20
2017-07-21T16:02:35.207Z,46.40
2017-07-21T16:05:03.557Z,46.20
2017-07-21T16:07:31.795Z,45.50
2017-07-21T16:09:59.266Z,45.50
2017-07-21T16:12:27.531Z,44.60
2017-07-21T16:14:55.778Z,45.20
2017-07-21T16:17:24.045Z,45.50
2017-07-21T16:19:52.278Z,45.50
2017-07-21T16:22:19.781Z,45.40
2017-07-21T16:24:47.294Z,45.60
2017-07-21T16:27:15.525Z,45.70
2017-07-21T16:29:43.093Z,45.70
2017-07-21T16:32:11.358Z,45.70
2017-07-21T16:34:39.617Z,46.20
2017-07-21T16:37:07.849Z,46.10
2017-07-21T16:39:35.352Z,46.10
2017-07-21T16:42:02.810Z,46.20
2017-07-21T16:44:30.296Z,45.50
2017-07-21T16:46:58.573Z,45.40
2017-07-21T16:49:26.097Z,45.30
2017-07-21T16:51:54.362Z,45.70
2017-07-21T16:54:22.091Z,45.60
2017-07-21T16:56:49.557Z,45.50
2017-07-21T16:59:17.033Z,45.30
2017-07-21T17:01:44.525Z,45.40
2017-07-21T17:04:12.890Z,45.00
2017-07-21T17:06:41.145Z,44.60
2017-07-21T17:09:09.378Z,44.50
2017-07-21T17:11:36.966Z,44.40
2017-07-21T17:14:04.452Z,44.50
2017-07-21T17:16:31.918Z,44.50
2017-07-21T17:18:59.484Z,44.50
2017-07-21T17:21:27.745Z,44.50
2017-07-21T17:23:56.010Z,44.40
2017-07-21T17:26:24.265Z,44.00
2017-07-21T17:28:52.521Z,43.90
2017-07-21T17:31:20.758Z,44.00
2017-07-21T17:33:48.253Z,44.00
2017-07-21T17:36:15.777Z,43.90
2017-07-21T17:38:43.245Z,43.70
2017-07-21T17:41:10.742Z,43.30
2017-07-21T17:43:38.281Z,43.10
2017-07-21T17:46:06.533Z,42.80
2017-07-21T17:48:34.802Z,42.60
2017-07-21T17:51:03.030Z,42.10
2017-07-21T17:53:30.602Z,42.10
2017-07-21T17:55:58.081Z,41.40
2017-07-21T17:58:25.586Z,40.30
2017-07-21T18:00:53.841Z,38.40
2017-07-21T18:03:22.202Z,37.40
2017-07-21T18:05:50.449Z,36.10
2017-07-21T18:08:17.926Z,36.10
2017-07-21T18:10:45.454Z,35.30
2017-07-21T18:13:13.696Z,33.90
2017-07-21T18:15:41.166Z,33.80
2017-07-21T18:18:08.702Z,33.30
2017-07-21T18:20:36.242Z,32.70
2017-07-21T18:23:04.575Z,31.90
2017-07-21T18:25:32.046Z,31.80
2017-07-21T18:28:00.311Z,31.30
2017-07-21T18:30:28.571Z,30.90
2017-07-21T18:32:56.830Z,30.70
2017-07-21T18:35:25.193Z,30.50
2017-07-21T18:37:53.430Z,30.40
2017-07-21T18:40:20.910Z,30.30
2017-07-21T18:42:48.437Z,30.20
2017-07-21T18:45:15.905Z,30.00
2017-07-21T18:47:43.376Z,29.90
2017-07-21T18:50:10.850Z,29.80
2017-07-21T18:52:39.087Z,29.40
2017-07-21T18:55:06.759Z,29.40
2017-07-21T18:57:34.998Z,29.00
2017-07-21T19:00:02.580Z,29.00
2017-07-21T19:02:30.318Z,28.80
2017-07-21T19:04:58.625Z,28.50
2017-07-21T19:07:26.185Z,28.50
2017-07-21T19:09:53.766Z,28.30
2017-07-21T19:12:21.993Z,28.00
2017-07-21T19:14:49.470Z,28.00
2017-07-21T19:17:17.716Z,27.70
2017-07-21T19:19:45.266Z,27.60
2017-07-21T19:22:13.497Z,27.40
2017-07-21T19:24:41.069Z,27.40
2017-07-21T19:27:09.440Z,27.20
2017-07-21T19:29:37.746Z,27.20
2017-07-21T19:32:05.272Z,27.10
2017-07-21T19:34:32.845Z,27.00
2017-07-21T19:37:00.512Z,26.80
2017-07-21T19:39:28.026Z,26.70
2017-07-21T19:41:55.528Z,26.60
2017-07-21T19:44:23.009Z,26.60
2017-07-21T19:46:51.269Z,26.40
2017-07-21T19:49:19.514Z,26.30
2017-07-21T19:51:47.794Z,26.20
2017-07-21T19:54:15.333Z,26.10
2017-07-21T19:56:43.754Z,26.00
2017-07-21T19:59:11.217Z,25.90
2017-07-21T20:01:38.781Z,25.80
2017-07-21T20:04:07.123Z,25.70
2017-07-21T20:06:34.590Z,25.60
2017-07-21T20:09:02.058Z,25.50
2017-07-21T20:11:29.550Z,25.50
2017-07-21T20:13:57.025Z,25.50
2017-07-21T20:16:24.553Z,25.40
2017-07-21T20:18:53.014Z,25.30
2017-07-21T20:21:21.250Z,25.20
2017-07-21T20:23:48.822Z,25.20
2017-07-21T20:26:17.182Z,25.00
2017-07-21T20:28:45.467Z,24.90
2017-07-21T20:31:12.983Z,24.90
2017-07-21T20:33:41.223Z,24.80
2017-07-21T20:36:08.722Z,24.80
2017-07-21T20:38:36.198Z,24.80
2017-07-21T20:41:03.720Z,24.70
2017-07-21T20:43:31.198Z,24.60
2017-07-21T20:45:58.657Z,24.50
2017-07-21T20:48:26.231Z,24.50
2017-07-21T20:50:54.462Z,24.40
2017-07-21T20:53:22.041Z,24.40
2017-07-21T20:55:50.277Z,24.30
2017-07-21T20:58:17.744Z,24.20
2017-07-21T21:00:45.281Z,24.20
2017-07-21T21:03:13.514Z,24.10
2017-07-21T21:05:40.986Z,24.10
2017-07-21T21:08:09.443Z,24.00
2017-07-21T21:10:37.678Z,23.90
2017-07-21T21:13:05.192Z,23.90
2017-07-21T21:15:32.789Z,23.90
2017-07-21T21:18:01.027Z,23.70
2017-07-21T21:20:28.485Z,23.60
2017-07-21T21:22:56.753Z,23.50
2017-07-21T21:25:25.014Z,23.50
2017-07-21T21:27:53.279Z,23.40
2017-07-21T21:30:21.538Z,23.30
2017-07-21T21:32:49.798Z,23.30
2017-07-21T21:35:18.051Z,23.30
2017-07-21T21:37:46.278Z,23.20
2017-07-21T21:40:13.737Z,23.20
2017-07-21T21:42:41.217Z,23.20
2017-07-21T21:45:09.446Z,23.10
2017-07-21T21:47:37.022Z,23.10
2017-07-21T21:50:05.413Z,23.00
2017-07-21T21:52:32.882Z,23.00
2017-07-21T21:55:00.377Z,23.00
2017-07-21T21:57:27.921Z,23.00
2017-07-21T21:59:55.453Z,23.00
2017-07-21T22:02:23.688Z,23.00
2017-07-21T22:04:51.192Z,23.00
2017-07-21T22:07:18.649Z,23.00
2017-07-21T22:09:46.238Z,23.00
2017-07-21T22:12:14.474Z,23.00
2017-07-21T22:14:41.943Z,23.00
2017-07-21T22:17:10.405Z,22.90
2017-07-21T22:19:38.638Z,22.90
2017-07-21T22:22:06.102Z,22.90
2017-07-21T22:24:34.571Z,22.90
2017-07-21T22:27:02.126Z,22.90
2017-07-21T22:29:30.489Z,22.80
2017-07-21T22:31:58.002Z,22.80
2017-07-21T22:34:25.470Z,22.90
2017-07-21T22:36:53.693Z,22.80
2017-07-21T22:39:21.962Z,22.70
2017-07-21T22:41:50.194Z,22.70
2017-07-21T22:44:17.664Z,22.70
2017-07-21T22:46:45.906Z,22.70
2017-07-21T22:49:13.467Z,22.70
2017-07-21T22:51:41.725Z,22.70
2017-07-21T22:54:10.093Z,22.70
2017-07-21T22:56:38.346Z,22.70
2017-07-21T22:59:06.615Z,22.70
2017-07-21T23:01:34.258Z,22.70
2017-07-21T23:04:02.514Z,22.70
2017-07-21T23:06:30.764Z,22.60
2017-07-21T23:08:58.530Z,22.60
2017-07-21T23:11:26.754Z,22.60
2017-07-21T23:13:54.329Z,22.50
2017-07-21T23:16:22.796Z,22.50
2017-07-21T23:18:51.100Z,22.40
2017-07-21T23:21:18.562Z,22.40
2017-07-21T23:23:46.034Z,22.40
2017-07-21T23:26:14.298Z,22.30
2017-07-21T23:28:42.664Z,22.30
2017-07-21T23:31:10.899Z,22.30
2017-07-21T23:33:38.362Z,22.30
2017-07-21T23:36:06.622Z,22.30
2017-07-21T23:38:34.169Z,22.30
2017-07-21T23:41:01.651Z,22.30
2017-07-21T23:43:29.233Z,22.30
2017-07-21T23:45:57.497Z,22.30
2017-07-21T23:48:25.762Z,22.30
2017-07-21T23:50:54.222Z,22.30
2017-07-21T23:53:22.450Z,22.30
2017-07-21T23:55:49.922Z,22.30
2017-07-21T23:58:18.286Z,22.20
